Time;durP1;ratioP1;P1;durP2;ratioP2;P2;SDS_P1;SDS_P2;PMS_P1;PMS_P2;Temp;Humidity;BMP_temperature;BMP_pressure;BME280_temperature;BME280_humidity;BME280_pressure;Samples;Min_cycle;Max_cycle;Signal;HPM_P1;HPM_P2
2022/10/02 00:02:12;;;;;;;26.50;5.20;;;;;;;13.10;100.00;101495.72;5041462;28;20032;-74
2022/10/02 00:04:59;;;;;;;35.38;5.03;;;;;;;13.21;100.00;101507.03;5048038;28;20124;-74
2022/10/02 00:07:29;;;;;;;28.08;6.90;;;;;;;13.17;100.00;101508.47;5044780;28;20108;-74
2022/10/02 00:10:02;;;;;;;33.42;5.45;;;;;;;13.23;100.00;101518.69;5047197;28;20029;-74
2022/10/02 00:12:29;;;;;;;37.20;4.75;;;;;;;13.19;100.00;101514.63;5039562;28;20025;-73
2022/10/02 00:15:02;;;;;;;36.05;5.88;;;;;;;13.32;100.00;101516.66;5049356;28;20067;-73
2022/10/02 00:17:33;;;;;;;22.20;4.50;;;;;;;13.22;100.00;101518.88;5042603;28;20032;-74
2022/10/02 00:19:59;;;;;;;29.42;5.25;;;;;;;13.24;100.00;101522.31;5046679;28;20143;-74
2022/10/02 00:22:43;;;;;;;33.20;5.37;;;;;;;13.27;100.00;101516.38;5049382;28;20116;-73
2022/10/02 00:25:26;;;;;;;23.52;4.70;;;;;;;13.22;100.00;101510.63;5048969;28;20032;-74
2022/10/02 00:28:02;;;;;;;24.10;3.92;;;;;;;13.33;100.00;101510.09;5048183;28;20048;-73
2022/10/02 00:30:36;;;;;;;25.13;4.00;;;;;;;13.23;100.00;101513.19;5044080;28;20449;-73
2022/10/02 00:33:22;;;;;;;27.88;4.40;;;;;;;13.24;100.00;101511.31;5038389;28;20033;-74
2022/10/02 00:36:17;;;;;;;22.45;4.00;;;;;;;13.24;100.00;101516.81;5036986;28;20472;-73
2022/10/02 00:39:12;;;;;;;31.58;4.35;;;;;;;13.29;100.00;101512.38;5042002;28;20061;-74
2022/10/02 00:42:01;;;;;;;27.48;4.28;;;;;;;13.28;100.00;101526.38;5047710;28;20029;-74
2022/10/02 00:44:49;;;;;;;28.20;4.68;;;;;;;13.38;100.00;101524.09;5033942;28;20028;-74
2022/10/02 00:47:52;;;;;;;41.80;4.30;;;;;;;13.32;100.00;101530.41;5045551;28;20061;-74
2022/10/02 00:50:33;;;;;;;26.27;3.58;;;;;;;13.32;100.00;101541.41;4979934;28;20122;-74
2022/10/02 00:53:24;;;;;;;24.15;4.40;;;;;;;13.22;100.00;101535.38;5046694;28;20421;-74
2022/10/02 00:56:26;;;;;;;16.58;3.67;;;;;;;13.07;100.00;101537.38;5035476;28;20528;-74
2022/10/02 00:59:13;;;;;;;23.60;4.10;;;;;;;12.92;100.00;101520.88;5008566;28;20041;-73
2022/10/02 01:01:45;;;;;;;19.35;3.08;;;;;;;12.74;100.00;101533.38;5045974;28;20090;-74
2022/10/02 01:04:22;;;;;;;21.38;3.38;;;;;;;12.65;100.00;101534.56;5048207;28;20551;-73
2022/10/02 01:06:47;;;;;;;13.70;2.88;;;;;;;12.54;100.00;101532.31;5028193;28;20037;-73
2022/10/02 01:09:13;;;;;;;20.47;3.67;;;;;;;12.49;100.00;101541.13;5028072;28;20040;-74
2022/10/02 01:11:38;;;;;;;27.20;4.23;;;;;;;12.47;100.00;101534.13;5046920;28;20094;-74
2022/10/02 01:14:04;;;;;;;35.20;4.03;;;;;;;12.51;100.00;101544.56;5049619;28;20392;-73
2022/10/02 01:16:30;;;;;;;29.17;3.67;;;;;;;12.65;100.00;101534.56;5041598;28;20033;-74
2022/10/02 01:18:55;;;;;;;19.23;3.53;;;;;;;12.65;100.00;101542.81;5035884;28;20049;-74
2022/10/02 01:21:31;;;;;;;23.03;3.20;;;;;;;12.68;100.00;101543.28;5048119;28;20286;-74
2022/10/02 01:24:02;;;;;;;28.33;4.00;;;;;;;12.75;100.00;101540.59;5047804;28;20033;-74
2022/10/02 01:26:27;;;;;;;24.10;3.78;;;;;;;12.73;100.00;101538.03;5046263;28;20554;-73
2022/10/02 01:28:52;;;;;;;23.20;4.57;;;;;;;12.86;100.00;101540.09;5046940;28;20091;-73
2022/10/02 01:31:18;;;;;;;19.00;4.40;;;;;;;12.94;100.00;101537.19;5049140;28;20035;-74
2022/10/02 01:33:47;;;;;;;17.83;2.72;;;;;;;12.94;100.00;101534.44;5045665;28;20391;-72
2022/10/02 01:36:15;;;;;;;22.60;3.00;;;;;;;13.13;100.00;101550.34;5045696;28;20025;-73
2022/10/02 01:38:41;;;;;;;34.40;4.50;;;;;;;13.13;100.00;101547.59;5048225;28;20056;-73
2022/10/02 01:41:10;;;;;;;20.73;4.18;;;;;;;13.14;100.00;101557.53;5046410;28;20029;-73
2022/10/02 01:43:41;;;;;;;21.60;4.80;;;;;;;13.16;100.00;101552.69;5021158;28;20095;-74
2022/10/02 01:46:09;;;;;;;25.17;4.03;;;;;;;13.20;100.00;101556.75;5048841;28;20395;-73
2022/10/02 01:48:44;;;;;;;19.30;3.28;;;;;;;13.16;100.00;101555.44;5048008;28;20115;-73
2022/10/02 01:51:44;;;;;;;22.50;4.03;;;;;;;13.19;100.00;101560.56;5023744;28;20104;-73
2022/10/02 01:54:28;;;;;;;21.10;3.38;;;;;;;13.29;100.00;101547.31;5050526;28;21881;-73
2022/10/02 01:57:13;;;;;;;31.05;4.75;;;;;;;13.22;100.00;101552.75;5032498;28;20047;-73
2022/10/02 02:00:07;;;;;;;23.00;3.05;;;;;;;13.21;100.00;101561.19;5039691;28;20025;-73
2022/10/02 02:02:43;;;;;;;25.80;4.60;;;;;;;13.17;100.00;101558.00;5038651;28;20029;-72
2022/10/02 02:05:29;;;;;;;28.65;3.95;;;;;;;13.21;100.00;101558.44;5050607;28;20052;-73
2022/10/02 02:08:13;;;;;;;21.50;3.17;;;;;;;13.19;100.00;101558.63;5050313;28;20115;-73
2022/10/02 02:10:47;;;;;;;19.05;4.05;;;;;;;13.22;100.00;101554.66;5047278;28;20032;-73
2022/10/02 02:13:25;;;;;;;29.60;3.55;;;;;;;13.23;100.00;101559.97;5050277;28;20104;-73
2022/10/02 02:16:02;;;;;;;18.60;3.78;;;;;;;13.21;100.00;101555.69;5033145;28;20128;-73
2022/10/02 02:19:06;;;;;;;18.70;3.42;;;;;;;13.20;100.00;101552.13;5046516;28;20036;-73
2022/10/02 02:21:38;;;;;;;25.10;3.97;;;;;;;13.06;100.00;101561.28;5021802;28;20037;-73
2022/10/02 02:24:11;;;;;;;18.67;3.95;;;;;;;13.12;100.00;101557.75;5032807;28;20035;-73
2022/10/02 02:26:37;;;;;;;24.00;3.92;;;;;;;13.03;100.00;101555.31;5051568;28;20033;-73
2022/10/02 02:29:07;;;;;;;20.10;2.88;;;;;;;12.95;100.00;101561.75;5049966;28;20017;-73
2022/10/02 02:31:38;;;;;;;33.47;3.53;;;;;;;12.98;100.00;101568.81;5050091;28;20025;-73
2022/10/02 02:34:13;;;;;;;29.10;3.47;;;;;;;12.95;100.00;101567.25;5048650;28;20080;-73
2022/10/02 02:36:43;;;;;;;27.98;4.03;;;;;;;12.95;100.00;101574.66;5047693;28;20033;-73
2022/10/02 02:39:14;;;;;;;18.80;3.20;;;;;;;12.88;100.00;101562.72;5050780;28;20127;-72
2022/10/02 02:41:48;;;;;;;28.88;3.20;;;;;;;12.91;100.00;101571.44;5049809;28;20035;-73
2022/10/02 02:44:46;;;;;;;22.02;3.92;;;;;;;12.98;100.00;101555.06;5034939;28;20112;-73
2022/10/02 02:47:17;;;;;;;32.08;4.32;;;;;;;13.00;100.00;101556.56;5041120;28;20087;-72
2022/10/02 02:49:56;;;;;;;23.35;3.60;;;;;;;12.97;100.00;101548.69;5045594;28;20083;-72
2022/10/02 02:52:28;;;;;;;25.48;3.92;;;;;;;13.05;100.00;101559.56;5041581;28;20047;-73
2022/10/02 02:55:02;;;;;;;25.02;4.28;;;;;;;13.10;100.00;101565.34;5049822;28;20500;-73
2022/10/02 02:57:36;;;;;;;27.80;5.47;;;;;;;13.13;100.00;101566.84;5049760;28;20056;-73
2022/10/02 03:00:05;;;;;;;20.88;3.72;;;;;;;13.16;100.00;101571.94;5043011;28;20558;-72
2022/10/02 03:02:31;;;;;;;29.30;4.28;;;;;;;13.07;100.00;101559.38;5046909;28;20117;-72
2022/10/02 03:04:57;;;;;;;31.47;4.20;;;;;;;13.15;100.00;101571.13;5049486;28;20157;-73
2022/10/02 03:07:22;;;;;;;29.80;4.20;;;;;;;13.29;100.00;101570.16;5049145;28;20025;-73
2022/10/02 03:10:09;;;;;;;33.93;4.77;;;;;;;13.32;100.00;101566.19;5049735;28;20017;-72
2022/10/02 03:12:58;;;;;;;21.60;3.80;;;;;;;13.26;100.00;101576.09;5047055;28;20395;-73
2022/10/02 03:16:03;;;;;;;31.83;4.20;;;;;;;13.23;100.00;101575.63;5048385;28;20483;-73
2022/10/02 03:18:47;;;;;;;25.80;4.57;;;;;;;13.31;100.00;101575.47;5045386;28;20083;-73
2022/10/02 03:21:32;;;;;;;25.90;4.32;;;;;;;13.18;100.00;101567.13;5043241;28;20029;-72
2022/10/02 03:24:07;;;;;;;25.65;5.07;;;;;;;13.17;100.00;101573.63;5050612;28;20471;-73
2022/10/02 03:26:43;;;;;;;24.90;3.72;;;;;;;13.11;100.00;101575.28;5049340;28;20028;-72
2022/10/02 03:29:17;;;;;;;23.45;4.05;;;;;;;13.08;100.00;101583.91;5047948;28;20112;-72
2022/10/02 03:31:43;;;;;;;22.25;3.53;;;;;;;13.05;100.00;101587.09;5049572;28;20048;-72
2022/10/02 03:34:10;;;;;;;25.88;3.67;;;;;;;13.07;100.00;101584.16;5046825;28;20033;-73
2022/10/02 03:36:35;;;;;;;30.85;4.03;;;;;;;13.05;100.00;101588.97;5044207;28;20032;-73
2022/10/02 03:39:02;;;;;;;25.20;4.23;;;;;;;13.14;100.00;101574.06;5048854;28;20037;-72
2022/10/02 03:41:27;;;;;;;28.70;4.13;;;;;;;13.10;100.00;101578.22;5046918;28;20055;-73
2022/10/02 03:43:53;;;;;;;20.80;3.23;;;;;;;13.07;100.00;101584.16;5049727;28;20029;-73
2022/10/02 03:46:18;;;;;;;33.40;4.00;;;;;;;12.98;100.00;101579.81;5048900;28;20112;-73
2022/10/02 03:48:43;;;;;;;18.60;4.10;;;;;;;12.94;100.00;101576.56;5048395;28;20037;-73
2022/10/02 03:51:09;;;;;;;19.90;3.43;;;;;;;12.87;100.00;101583.03;5039108;28;20028;-73
2022/10/02 03:53:34;;;;;;;38.20;4.27;;;;;;;12.82;100.00;101577.25;5049948;28;20025;-72
2022/10/02 03:56:08;;;;;;;28.63;4.20;;;;;;;12.91;100.00;101578.84;5048465;28;20119;-73
2022/10/02 03:58:39;;;;;;;16.95;3.63;;;;;;;12.89;100.00;101592.78;5050609;28;20025;-73
2022/10/02 04:01:12;;;;;;;17.13;2.85;;;;;;;12.86;100.00;101575.84;5046276;28;20435;-73
2022/10/02 04:03:44;;;;;;;28.38;3.35;;;;;;;12.87;100.00;101572.03;5050380;28;20021;-73
2022/10/02 04:06:19;;;;;;;14.07;2.60;;;;;;;12.83;100.00;101579.81;5047310;28;20097;-73
2022/10/02 04:08:50;;;;;;;13.60;2.75;;;;;;;12.86;100.00;101576.66;5046265;28;20031;-72
2022/10/02 04:11:26;;;;;;;27.85;3.53;;;;;;;12.93;100.00;101579.50;5044877;28;20029;-73
2022/10/02 04:14:11;;;;;;;20.17;3.83;;;;;;;12.97;100.00;101578.09;5046720;28;20116;-73
2022/10/02 04:16:43;;;;;;;27.60;3.13;;;;;;;12.93;100.00;101576.75;5048578;28;20028;-73
2022/10/02 04:19:24;;;;;;;31.83;3.40;;;;;;;13.08;100.00;101591.34;5044969;28;20060;-73
2022/10/02 04:21:56;;;;;;;24.02;3.75;;;;;;;13.07;100.00;101595.97;5047646;28;20583;-72
2022/10/02 04:25:09;;;;;;;18.98;2.90;;;;;;;13.13;100.00;101597.94;5042147;28;20021;-73
2022/10/02 04:27:59;;;;;;;26.40;3.30;;;;;;;13.25;100.00;101592.78;4965985;28;20118;-74
2022/10/02 04:30:24;;;;;;;20.90;2.70;;;;;;;13.15;100.00;101593.13;5033348;28;20041;-73
2022/10/02 04:32:50;;;;;;;17.37;3.27;;;;;;;13.25;100.00;101598.28;5048107;28;20103;-73
2022/10/02 04:35:27;;;;;;;23.00;4.00;;;;;;;13.16;100.00;101596.69;5046778;28;20473;-73
2022/10/02 04:38:21;;;;;;;20.07;2.50;;;;;;;13.11;100.00;101599.19;5024569;28;20607;-73
2022/10/02 04:41:02;;;;;;;17.13;2.47;;;;;;;13.08;100.00;101599.59;5038755;28;20277;-72
2022/10/02 04:43:55;;;;;;;16.05;3.03;;;;;;;13.03;100.00;101613.06;5038230;28;20032;-73
2022/10/02 04:46:38;;;;;;;22.27;2.10;;;;;;;12.99;100.00;101614.50;5047903;28;20104;-73
2022/10/02 04:49:12;;;;;;;22.60;2.20;;;;;;;12.95;100.00;101615.91;5045645;28;20709;-73
2022/10/02 04:52:10;;;;;;;13.25;2.45;;;;;;;12.88;100.00;101614.97;5041274;28;20103;-73
2022/10/02 04:54:47;;;;;;;18.20;2.55;;;;;;;12.89;100.00;101613.94;5042057;28;20108;-73
2022/10/02 04:57:44;;;;;;;13.80;2.58;;;;;;;12.71;100.00;101614.34;5045203;28;20468;-73
2022/10/02 05:00:14;;;;;;;16.40;2.33;;;;;;;12.58;100.00;101611.44;4986570;28;21623;-73
2022/10/02 05:03:01;;;;;;;17.05;2.55;;;;;;;12.50;100.00;101619.75;5038913;28;20475;-73
2022/10/02 05:05:34;;;;;;;15.65;3.05;;;;;;;12.46;100.00;101628.59;5049119;28;20036;-73
2022/10/02 05:08:10;;;;;;;21.23;3.90;;;;;;;12.39;100.00;101642.22;5044927;28;20037;-73
2022/10/02 05:10:54;;;;;;;19.30;2.60;;;;;;;12.37;100.00;101635.22;5032851;28;20032;-73
2022/10/02 05:13:42;;;;;;;13.48;2.50;;;;;;;12.29;100.00;101640.81;5017371;28;20041;-73
2022/10/02 05:16:13;;;;;;;17.73;2.90;;;;;;;12.26;100.00;101647.53;5035600;28;20051;-73
2022/10/02 05:19:06;;;;;;;18.13;3.15;;;;;;;12.27;100.00;101645.66;5044911;28;20357;-73
2022/10/02 05:21:55;;;;;;;12.23;2.10;;;;;;;12.27;100.00;101645.66;5036427;28;20040;-73
2022/10/02 05:24:48;;;;;;;16.13;2.72;;;;;;;12.24;100.00;101651.53;5042928;28;20041;-73
2022/10/02 05:27:31;;;;;;;17.23;2.60;;;;;;;12.19;100.00;101646.59;5035706;28;20026;-72
2022/10/02 05:30:04;;;;;;;19.80;2.33;;;;;;;12.11;100.00;101652.16;5038455;28;20135;-73
2022/10/02 05:32:54;;;;;;;11.88;2.50;;;;;;;12.01;100.00;101650.75;5043661;28;20029;-74
2022/10/02 05:36:05;;;;;;;14.77;2.22;;;;;;;11.92;100.00;101643.63;5030359;28;20545;-74
2022/10/02 05:38:59;;;;;;;14.20;2.45;;;;;;;12.03;100.00;101660.50;5042501;28;20460;-73
2022/10/02 05:41:48;;;;;;;15.80;3.10;;;;;;;12.05;100.00;101658.41;5042078;28;20071;-73
2022/10/02 05:44:28;;;;;;;24.55;2.63;;;;;;;12.11;100.00;101656.81;5043651;28;20535;-74
2022/10/02 05:46:57;;;;;;;20.05;3.47;;;;;;;12.15;100.00;101653.50;5044869;28;20196;-73
2022/10/02 05:49:33;;;;;;;22.58;3.28;;;;;;;12.26;100.00;101672.28;5047831;28;20021;-74
2022/10/02 05:51:59;;;;;;;24.57;3.20;;;;;;;12.27;100.00;101673.97;5047366;28;20129;-72
2022/10/02 05:54:27;;;;;;;16.37;3.10;;;;;;;12.20;100.00;101685.88;5048045;28;20064;-71
2022/10/02 05:57:02;;;;;;;8.23;2.30;;;;;;;12.11;100.00;101682.38;5026207;28;20117;-72
2022/10/02 05:59:41;;;;;;;9.60;2.38;;;;;;;12.03;100.00;101693.47;5041328;28;20033;-72
2022/10/02 06:02:23;;;;;;;16.00;2.60;;;;;;;12.00;100.00;101699.31;5044496;28;20371;-72
2022/10/02 06:05:01;;;;;;;14.30;2.35;;;;;;;11.99;100.00;101694.00;5046539;28;20021;-73
2022/10/02 06:07:28;;;;;;;23.50;3.28;;;;;;;12.00;100.00;101691.06;5043198;28;20029;-73
2022/10/02 06:09:53;;;;;;;16.67;3.55;;;;;;;12.03;100.00;101692.59;5048148;28;20090;-73
2022/10/02 06:12:25;;;;;;;17.67;3.10;;;;;;;12.03;100.00;101689.84;5046394;28;20029;-72
2022/10/02 06:15:03;;;;;;;14.27;2.33;;;;;;;12.06;100.00;101693.06;5047488;28;20514;-72
2022/10/02 06:17:35;;;;;;;13.55;2.35;;;;;;;12.07;100.00;101694.75;5041609;28;20454;-72
2022/10/02 06:20:14;;;;;;;18.63;2.97;;;;;;;12.06;100.00;101689.50;5046485;28;20400;-73
2022/10/02 06:23:09;;;;;;;14.23;2.70;;;;;;;12.10;100.00;101697.16;5040988;28;20017;-71
2022/10/02 06:25:48;;;;;;;14.63;2.53;;;;;;;12.12;100.00;101694.22;5038633;28;20045;-72
2022/10/02 06:28:47;;;;;;;13.57;2.00;;;;;;;12.12;100.00;101702.47;5040663;28;20086;-72
2022/10/02 06:31:21;;;;;;;14.75;2.95;;;;;;;12.16;100.00;101710.13;5023483;28;20451;-72
2022/10/02 06:33:47;;;;;;;17.58;2.53;;;;;;;12.22;100.00;101716.78;5048305;28;20048;-72
2022/10/02 06:36:41;;;;;;;10.17;2.67;;;;;;;12.25;100.00;101724.63;5047004;28;20029;-72
2022/10/02 06:39:40;;;;;;;27.48;3.72;;;;;;;12.26;100.00;101731.84;5043329;28;20048;-73
2022/10/02 06:42:19;;;;;;;10.50;2.45;;;;;;;12.27;100.00;101734.41;5048155;28;20029;-73
2022/10/02 06:45:17;;;;;;;14.43;3.08;;;;;;;12.30;100.00;101739.53;5050617;28;20051;-73
2022/10/02 06:48:04;;;;;;;14.98;3.67;;;;;;;12.35;100.00;101745.34;5046064;28;20031;-72
2022/10/02 06:51:23;;;;;;;17.05;3.13;;;;;;;12.40;100.00;101750.25;5043500;28;20057;-72
2022/10/02 06:54:24;;;;;;;27.30;4.20;;;;;;;12.50;100.00;101746.19;4949295;29;20035;-72
2022/10/02 06:57:20;;;;;;;20.35;4.93;;;;;;;12.60;100.00;101740.44;4965510;28;20505;-72
2022/10/02 07:00:02;;;;;;;21.25;3.78;;;;;;;12.65;100.00;101743.47;5033592;28;20025;-72
2022/10/02 07:02:46;;;;;;;19.08;3.10;;;;;;;12.80;100.00;101758.91;5036963;28;20025;-73
2022/10/02 07:05:26;;;;;;;28.40;4.05;;;;;;;12.86;100.00;101758.16;5050323;28;20036;-73
2022/10/02 07:08:19;;;;;;;14.73;2.85;;;;;;;12.90;100.00;101753.13;5046171;28;20077;-73
2022/10/02 07:11:02;;;;;;;21.35;3.13;;;;;;;12.98;100.00;101750.31;5010872;28;20069;-73
2022/10/02 07:13:39;;;;;;;22.58;3.47;;;;;;;13.05;100.00;101748.50;5046767;28;20065;-73
2022/10/02 07:16:20;;;;;;;12.57;2.90;;;;;;;13.11;100.00;101751.34;5044282;28;20532;-72
2022/10/02 07:19:12;;;;;;;25.13;3.85;;;;;;;13.17;100.00;101753.31;5045938;28;20366;-71
2022/10/02 07:21:50;;;;;;;16.98;4.63;;;;;;;13.25;100.00;101755.13;5044010;28;20028;-72
2022/10/02 07:24:50;;;;;;;15.90;3.05;;;;;;;13.26;100.00;101762.31;5050865;28;20115;-72
2022/10/02 07:27:21;;;;;;;17.65;2.95;;;;;;;13.27;100.00;101755.78;5047251;28;20055;-72
2022/10/02 07:30:05;;;;;;;20.83;3.05;;;;;;;13.32;100.00;101758.81;5048704;28;20025;-72
2022/10/02 07:32:51;;;;;;;20.33;3.22;;;;;;;13.35;100.00;101761.19;5045515;28;20037;-72
2022/10/02 07:35:25;;;;;;;19.90;3.20;;;;;;;13.37;100.00;101756.31;5038600;28;20040;-72
2022/10/02 07:37:53;;;;;;;23.58;3.17;;;;;;;13.41;100.00;101758.53;5049822;28;20102;-72
2022/10/02 07:40:27;;;;;;;10.50;3.10;;;;;;;13.45;100.00;101765.31;5048964;28;20032;-72
2022/10/02 07:43:15;;;;;;;13.27;3.17;;;;;;;13.48;100.00;101764.94;5026780;28;20115;-72
2022/10/02 07:45:46;;;;;;;15.67;3.30;;;;;;;13.55;100.00;101770.53;5046196;28;20119;-73
2022/10/02 07:48:25;;;;;;;22.60;3.35;;;;;;;13.65;100.00;101765.53;5049594;28;20045;-72
2022/10/02 07:51:01;;;;;;;19.63;3.42;;;;;;;13.76;100.00;101768.66;5047951;28;20032;-72
2022/10/02 07:53:37;;;;;;;22.83;3.35;;;;;;;13.77;100.00;101772.25;5049628;28;20100;-72
2022/10/02 07:56:05;;;;;;;21.50;3.15;;;;;;;13.92;100.00;101778.56;5048747;28;20037;-73
2022/10/02 07:58:40;;;;;;;14.40;3.10;;;;;;;13.90;100.00;101781.53;5049115;28;20040;-72
2022/10/02 08:01:12;;;;;;;16.73;2.78;;;;;;;14.00;100.00;101778.44;5025740;28;20512;-73
2022/10/02 08:03:50;;;;;;;16.17;3.22;;;;;;;14.08;100.00;101790.16;5045686;28;20053;-72
2022/10/02 08:06:16;;;;;;;15.68;2.83;;;;;;;14.03;100.00;101797.34;5044296;28;20025;-73
2022/10/02 08:08:52;;;;;;;25.73;3.90;;;;;;;14.09;100.00;101796.53;5032390;28;20036;-72
2022/10/02 08:11:18;;;;;;;17.30;2.92;;;;;;;14.16;99.83;101808.47;5045364;28;20274;-73
2022/10/02 08:13:55;;;;;;;19.63;3.37;;;;;;;14.19;100.00;101811.72;5049381;28;20392;-73
2022/10/02 08:16:25;;;;;;;17.25;2.92;;;;;;;14.27;99.86;101805.22;5044858;28;20065;-72
2022/10/02 08:19:00;;;;;;;20.15;3.55;;;;;;;14.34;99.89;101804.22;5036928;28;20025;-72
2022/10/02 08:21:29;;;;;;;13.57;3.17;;;;;;;14.35;99.92;101813.38;5046716;28;20028;-72
2022/10/02 08:24:00;;;;;;;18.98;2.90;;;;;;;14.43;98.32;101818.72;5050693;28;20087;-73
2022/10/02 08:26:37;;;;;;;27.88;3.90;;;;;;;14.50;98.28;101826.00;5043785;28;20111;-72
2022/10/02 08:29:08;;;;;;;22.13;3.58;;;;;;;14.58;98.13;101819.50;5046858;28;20048;-72
2022/10/02 08:31:34;;;;;;;21.05;3.47;;;;;;;14.64;96.03;101829.72;5045155;28;20031;-72
2022/10/02 08:34:16;;;;;;;18.90;2.37;;;;;;;14.76;96.31;101833.63;5042111;28;20049;-72
2022/10/02 08:37:00;;;;;;;21.35;3.40;;;;;;;14.77;96.36;101836.22;5045160;28;20025;-72
2022/10/02 08:39:37;;;;;;;15.60;3.78;;;;;;;14.82;95.53;101836.47;5034878;28;20029;-72
2022/10/02 08:42:23;;;;;;;21.17;2.65;;;;;;;14.86;94.50;101850.69;5046101;28;20028;-71
2022/10/02 08:45:07;;;;;;;18.08;2.30;;;;;;;14.89;95.55;101856.66;5045225;28;20488;-71
2022/10/02 08:47:35;;;;;;;19.65;3.05;;;;;;;14.90;93.66;101860.28;5039107;28;20054;-71
2022/10/02 08:50:28;;;;;;;18.10;2.95;;;;;;;14.96;95.09;101868.63;5043799;28;20890;-72
2022/10/02 08:53:08;;;;;;;15.18;2.97;;;;;;;15.11;95.16;101865.75;5044998;28;20071;-72
2022/10/02 08:56:09;;;;;;;17.27;3.28;;;;;;;15.36;94.65;101858.72;5041189;28;20033;-72
2022/10/02 08:58:43;;;;;;;21.50;3.50;;;;;;;15.50;92.83;101857.72;5000693;28;20064;-72
2022/10/02 09:02:08;;;;;;;19.33;2.97;;;;;;;15.55;91.80;101857.97;5043585;28;20100;-72
2022/10/02 09:04:53;;;;;;;19.20;3.03;;;;;;;15.57;91.55;101858.59;4960808;28;20031;-73
2022/10/02 09:07:46;;;;;;;24.33;3.60;;;;;;;15.68;91.38;101863.56;5044422;28;20484;-72
2022/10/02 09:10:30;;;;;;;18.98;2.88;;;;;;;15.71;91.73;101864.00;5038616;28;20400;-72
2022/10/02 09:13:37;;;;;;;13.90;2.58;;;;;;;15.78;90.15;101864.00;5042138;28;20082;-72
2022/10/02 09:16:13;;;;;;;16.70;3.65;;;;;;;15.83;91.33;101862.34;5039296;28;20460;-72
2022/10/02 09:19:02;;;;;;;14.57;3.10;;;;;;;15.90;89.03;101871.50;5035447;28;20025;-72
2022/10/02 09:21:49;;;;;;;17.60;3.30;;;;;;;16.04;91.58;101875.16;5046476;28;20468;-72
2022/10/02 09:25:09;;;;;;;19.67;2.85;;;;;;;16.05;89.63;101868.56;5030171;28;20484;-72
2022/10/02 09:27:43;;;;;;;;;;;;;;;16.12;89.13;101872.22;4967927;28;20054;-71
2022/10/02 09:30:39;;;;;;;25.13;3.45;;;;;;;16.13;88.89;101880.31;5032116;28;19943;-73
2022/10/02 09:33:15;;;;;;;21.20;3.20;;;;;;;16.13;86.93;101876.69;5044057;28;20029;-73
2022/10/02 09:36:25;;;;;;;12.80;2.27;;;;;;;16.37;88.41;101881.63;5038372;28;20138;-71
2022/10/02 09:39:08;;;;;;;19.80;3.30;;;;;;;16.58;85.46;101878.72;5039248;28;20327;-73
2022/10/02 09:41:48;;;;;;;19.13;3.63;;;;;;;16.77;83.18;101877.91;5048525;28;20021;-73
2022/10/02 09:44:39;;;;;;;19.42;2.92;;;;;;;16.80;85.38;101877.50;5046829;28;20060;-73
2022/10/02 09:47:34;;;;;;;15.77;2.67;;;;;;;16.87;82.99;101883.88;5048712;28;20029;-73
2022/10/02 09:50:20;;;;;;;14.98;2.95;;;;;;;16.89;82.75;101882.59;5033934;28;20112;-73
2022/10/02 09:53:36;;;;;;;20.27;3.17;;;;;;;16.94;83.62;101887.47;5040033;28;20094;-72
2022/10/02 09:56:28;;;;;;;18.15;2.95;;;;;;;17.21;82.69;101892.78;4995713;28;20075;-72
2022/10/02 09:59:06;;;;;;;15.98;3.30;;;;;;;17.09;80.90;101891.75;5042648;28;20455;-72
2022/10/02 10:01:31;;;;;;;;;;;;;;;17.24;82.33;101891.50;5043900;28;20029;-72
2022/10/02 10:04:45;;;;;;;25.67;3.45;;;;;;;17.13;82.33;101894.94;5045638;28;20003;-73
2022/10/02 10:07:29;;;;;;;13.55;3.75;;;;;;;17.05;82.39;101908.97;5033168;28;20045;-72
2022/10/02 10:10:24;;;;;;;19.10;3.80;;;;;;;16.70;77.86;101904.72;5042516;28;20037;-72
2022/10/02 10:12:58;;;;;;;21.17;3.25;;;;;;;16.65;80.85;101910.03;5033600;28;20033;-72
2022/10/02 10:15:57;;;;;;;17.63;3.20;;;;;;;16.70;81.09;101910.25;5032672;28;20455;-71
2022/10/02 10:18:32;;;;;;;;;;;;;;;16.48;79.55;101922.56;5035409;28;20480;-72
2022/10/02 10:21:01;;;;;;;21.35;3.28;;;;;;;16.35;80.72;101928.88;5039825;28;19923;-72
2022/10/02 10:23:48;;;;;;;24.42;3.72;;;;;;;16.36;81.82;101929.72;5040037;28;20025;-72
2022/10/02 10:26:22;;;;;;;18.25;2.78;;;;;;;16.34;80.66;101935.44;5043840;28;21791;-72
2022/10/02 10:29:14;;;;;;;33.63;4.25;;;;;;;16.38;80.22;101939.50;5036460;28;20024;-72
2022/10/02 10:32:05;;;;;;;15.18;3.72;;;;;;;16.42;82.20;101935.31;5034657;28;20041;-72
2022/10/02 10:34:36;;;;;;;18.98;3.33;;;;;;;16.44;79.39;101943.41;5040746;28;20037;-71
2022/10/02 10:40:17;;;;;;;18.33;3.05;;;;;;;16.36;80.10;101935.25;5041418;28;20434;-71
2022/10/02 10:43:10;;;;;;;21.75;3.90;;;;;;;16.34;76.74;101940.16;5041398;28;20480;-72
2022/10/02 10:45:35;;;;;;;13.85;2.20;;;;;;;16.39;77.47;101938.47;5043631;28;21654;-72
2022/10/02 10:48:29;;;;;;;21.43;3.37;;;;;;;16.37;77.89;101940.56;5047359;28;20159;-72
2022/10/02 10:51:13;;;;;;;8.02;2.13;;;;;;;16.42;77.79;101953.81;5044973;28;20488;-71
2022/10/02 10:54:11;;;;;;;15.00;2.80;;;;;;;16.39;75.26;101951.47;5025626;28;20052;-72
2022/10/02 10:56:44;;;;;;;20.90;3.22;;;;;;;16.44;79.17;101954.47;5020596;28;20044;-72
2022/10/02 10:59:33;;;;;;;15.77;2.75;;;;;;;16.40;76.75;101964.22;5046350;28;20503;-72
2022/10/02 11:02:34;;;;;;;23.63;3.08;;;;;;;16.36;76.95;101965.66;5044859;28;20116;-72
2022/10/02 11:05:18;;;;;;;21.08;3.28;;;;;;;16.37;77.80;101976.53;5002533;28;20044;-71
2022/10/02 11:07:53;;;;;;;16.95;2.83;;;;;;;16.38;76.39;101981.00;5032985;28;20053;-72
2022/10/02 11:10:51;;;;;;;17.55;2.33;;;;;;;16.37;74.73;101975.66;5039208;28;20033;-71
2022/10/02 11:13:46;;;;;;;20.77;3.08;;;;;;;16.44;76.12;101977.44;5004864;28;20049;-72
2022/10/02 11:16:31;;;;;;;15.52;3.30;;;;;;;16.59;75.34;101985.59;5041998;28;20677;-71
2022/10/02 11:19:04;;;;;;;13.85;3.78;;;;;;;16.78;74.28;101985.63;5043133;28;20048;-71
2022/10/02 11:21:38;;;;;;;23.48;2.55;;;;;;;16.95;73.66;101986.06;5046015;28;20025;-72
2022/10/02 11:24:21;;;;;;;10.38;2.17;;;;;;;16.99;73.57;101987.34;5032936;28;20226;-72
2022/10/02 11:27:08;;;;;;;14.95;2.70;;;;;;;17.01;73.86;101986.06;5045839;28;20025;-72
2022/10/02 11:29:56;;;;;;;16.02;2.75;;;;;;;16.97;69.57;101984.78;5043220;28;20060;-71
2022/10/02 11:32:27;;;;;;;16.08;3.65;;;;;;;17.03;70.61;101989.47;5047948;28;20029;-71
2022/10/02 11:35:16;;;;;;;18.05;2.75;;;;;;;17.21;72.01;101992.47;5046115;28;20041;-71
2022/10/02 11:38:07;;;;;;;12.57;2.28;;;;;;;17.23;71.03;101983.97;5046391;28;20033;-71
2022/10/02 11:40:57;;;;;;;15.30;2.50;;;;;;;17.43;72.01;101990.38;5041185;28;20029;-71
2022/10/02 11:43:42;;;;;;;19.05;3.38;;;;;;;17.45;71.79;102004.88;5024866;28;20035;-71
2022/10/02 11:46:45;;;;;;;11.75;2.83;;;;;;;17.60;72.90;102002.75;5029395;28;20033;-71
2022/10/02 11:49:29;;;;;;;11.15;2.13;;;;;;;17.58;71.28;102004.84;5041721;28;20274;-71
2022/10/02 11:52:40;;;;;;;15.98;3.40;;;;;;;17.47;71.37;102003.59;5047081;28;20033;-72
2022/10/02 11:55:50;;;;;;;20.15;3.60;;;;;;;17.28;71.47;102009.13;5045542;28;20054;-73
2022/10/02 11:58:40;;;;;;;9.93;2.53;;;;;;;17.62;69.48;102020.00;5022008;28;20052;-72
2022/10/02 12:01:36;;;;;;;11.15;2.42;;;;;;;17.81;69.82;102019.09;5044883;28;20025;-72
2022/10/02 12:04:29;;;;;;;12.85;2.90;;;;;;;17.79;68.92;102019.34;5043781;28;20180;-73
2022/10/02 12:07:07;;;;;;;20.02;3.45;;;;;;;17.90;69.89;102028.91;5043712;28;20033;-73
2022/10/02 12:09:32;;;;;;;;;;;;;;;17.96;68.74;102019.72;5045635;28;20029;-73
2022/10/02 12:12:12;;;;;;;14.90;3.37;;;;;;;18.17;66.00;102028.63;5043621;28;19923;-73
2022/10/02 12:14:55;;;;;;;16.88;3.20;;;;;;;18.39;68.15;102026.44;5038896;28;20569;-73
2022/10/02 12:17:59;;;;;;;16.92;2.75;;;;;;;18.57;64.47;102034.91;5041597;28;20127;-72